sensor_id;sensor_type;location;lat;lon;timestamp;P1;durP1;ratioP1;P2;durP2;ratioP2
18114;SDS011;9184;54.390;18.620;2022-10-16T00:00:01;132.52;;;70.75;;
18114;SDS011;9184;54.390;18.620;2022-10-16T00:00:32;129.45;;;69.93;;
18114;SDS011;9184;54.390;18.620;2022-10-16T00:01:06;134.13;;;74.53;;
18114;SDS011;9184;54.390;18.620;2022-10-16T00:01:38;128.15;;;71.60;;
18114;SDS011;9184;54.390;18.620;2022-10-16T00:02:09;129.88;;;72.55;;
18114;SDS011;9184;54.390;18.620;2022-10-16T00:02:39;130.48;;;72.25;;
18114;SDS011;9184;54.390;18.620;2022-10-16T00:03:11;123.60;;;71.90;;
18114;SDS011;9184;54.390;18.620;2022-10-16T00:03:42;123.25;;;68.70;;
18114;SDS011;9184;54.390;18.620;2022-10-16T00:04:13;123.43;;;70.35;;
18114;SDS011;9184;54.390;18.620;2022-10-16T00:04:45;120.60;;;69.90;;
18114;SDS011;9184;54.390;18.620;2022-10-16T00:05:15;125.65;;;70.57;;
18114;SDS011;9184;54.390;18.620;2022-10-16T00:05:46;123.65;;;71.15;;
18114;SDS011;9184;54.390;18.620;2022-10-16T00:06:19;117.68;;;68.78;;
18114;SDS011;9184;54.390;18.620;2022-10-16T00:06:50;127.25;;;71.22;;
18114;SDS011;9184;54.390;18.620;2022-10-16T00:07:21;121.90;;;69.32;;
18114;SDS011;9184;54.390;18.620;2022-10-16T00:07:53;120.18;;;65.63;;
18114;SDS011;9184;54.390;18.620;2022-10-16T00:08:24;121.55;;;71.28;;
18114;SDS011;9184;54.390;18.620;2022-10-16T00:08:54;121.55;;;68.85;;
18114;SDS011;9184;54.390;18.620;2022-10-16T00:09:26;118.93;;;69.30;;
18114;SDS011;9184;54.390;18.620;2022-10-16T00:09:56;122.78;;;70.40;;
18114;SDS011;9184;54.390;18.620;2022-10-16T00:10:28;120.55;;;65.88;;
18114;SDS011;9184;54.390;18.620;2022-10-16T00:11:00;132.23;;;70.68;;
18114;SDS011;9184;54.390;18.620;2022-10-16T00:11:32;123.43;;;68.63;;
18114;SDS011;9184;54.390;18.620;2022-10-16T00:12:06;118.57;;;70.45;;
18114;SDS011;9184;54.390;18.620;2022-10-16T00:12:37;124.15;;;68.90;;
18114;SDS011;9184;54.390;18.620;2022-10-16T00:13:08;123.97;;;68.90;;
18114;SDS011;9184;54.390;18.620;2022-10-16T00:13:41;111.25;;;65.85;;
18114;SDS011;9184;54.390;18.620;2022-10-16T00:14:12;115.05;;;67.88;;
18114;SDS011;9184;54.390;18.620;2022-10-16T00:14:43;110.10;;;65.47;;
18114;SDS011;9184;54.390;18.620;2022-10-16T00:15:14;114.30;;;66.18;;
18114;SDS011;9184;54.390;18.620;2022-10-16T00:15:45;113.93;;;67.03;;
18114;SDS011;9184;54.390;18.620;2022-10-16T00:16:16;116.80;;;68.20;;
18114;SDS011;9184;54.390;18.620;2022-10-16T00:16:48;124.05;;;69.50;;
18114;SDS011;9184;54.390;18.620;2022-10-16T00:17:18;118.18;;;70.18;;
18114;SDS011;9184;54.390;18.620;2022-10-16T00:17:49;115.38;;;69.55;;
18114;SDS011;9184;54.390;18.620;2022-10-16T00:18:20;108.60;;;64.53;;
18114;SDS011;9184;54.390;18.620;2022-10-16T00:18:51;123.40;;;68.57;;
18114;SDS011;9184;54.390;18.620;2022-10-16T00:19:22;114.53;;;67.82;;
18114;SDS011;9184;54.390;18.620;2022-10-16T00:19:53;112.47;;;65.00;;
18114;SDS011;9184;54.390;18.620;2022-10-16T00:20:23;123.07;;;68.00;;
18114;SDS011;9184;54.390;18.620;2022-10-16T00:20:55;116.28;;;66.18;;
18114;SDS011;9184;54.390;18.620;2022-10-16T00:21:27;119.18;;;68.05;;
18114;SDS011;9184;54.390;18.620;2022-10-16T00:21:58;112.00;;;65.72;;
18114;SDS011;9184;54.390;18.620;2022-10-16T00:22:30;112.28;;;66.40;;
18114;SDS011;9184;54.390;18.620;2022-10-16T00:23:01;116.95;;;67.13;;
18114;SDS011;9184;54.390;18.620;2022-10-16T00:23:33;113.40;;;66.45;;
18114;SDS011;9184;54.390;18.620;2022-10-16T00:24:05;109.40;;;65.72;;
18114;SDS011;9184;54.390;18.620;2022-10-16T00:24:38;119.78;;;66.03;;
18114;SDS011;9184;54.390;18.620;2022-10-16T00:25:09;114.97;;;65.20;;
18114;SDS011;9184;54.390;18.620;2022-10-16T00:25:40;122.88;;;69.28;;
18114;SDS011;9184;54.390;18.620;2022-10-16T00:26:11;108.75;;;64.20;;
18114;SDS011;9184;54.390;18.620;2022-10-16T00:26:43;114.38;;;63.25;;
18114;SDS011;9184;54.390;18.620;2022-10-16T00:27:13;113.00;;;65.13;;
18114;SDS011;9184;54.390;18.620;2022-10-16T00:27:44;105.00;;;64.63;;
18114;SDS011;9184;54.390;18.620;2022-10-16T00:28:17;110.38;;;65.30;;
18114;SDS011;9184;54.390;18.620;2022-10-16T00:28:49;109.60;;;64.18;;
18114;SDS011;9184;54.390;18.620;2022-10-16T00:29:20;118.60;;;69.13;;
18114;SDS011;9184;54.390;18.620;2022-10-16T00:29:52;114.30;;;63.53;;
18114;SDS011;9184;54.390;18.620;2022-10-16T00:30:22;119.30;;;66.57;;
18114;SDS011;9184;54.390;18.620;2022-10-16T00:30:53;113.88;;;64.50;;
18114;SDS011;9184;54.390;18.620;2022-10-16T00:31:24;118.72;;;67.68;;
18114;SDS011;9184;54.390;18.620;2022-10-16T00:31:55;107.53;;;63.22;;
18114;SDS011;9184;54.390;18.620;2022-10-16T00:32:26;106.95;;;64.72;;
18114;SDS011;9184;54.390;18.620;2022-10-16T00:32:57;114.35;;;65.93;;
18114;SDS011;9184;54.390;18.620;2022-10-16T00:33:31;111.53;;;63.53;;
18114;SDS011;9184;54.390;18.620;2022-10-16T00:34:01;108.30;;;63.53;;
18114;SDS011;9184;54.390;18.620;2022-10-16T00:34:32;114.93;;;64.97;;
18114;SDS011;9184;54.390;18.620;2022-10-16T00:35:05;118.22;;;65.10;;
18114;SDS011;9184;54.390;18.620;2022-10-16T00:35:36;114.30;;;63.50;;
18114;SDS011;9184;54.390;18.620;2022-10-16T00:36:07;110.55;;;64.78;;
18114;SDS011;9184;54.390;18.620;2022-10-16T00:36:39;104.45;;;63.35;;
18114;SDS011;9184;54.390;18.620;2022-10-16T00:37:10;111.20;;;62.90;;
18114;SDS011;9184;54.390;18.620;2022-10-16T00:37:40;104.55;;;63.33;;
18114;SDS011;9184;54.390;18.620;2022-10-16T00:38:12;122.35;;;64.47;;
18114;SDS011;9184;54.390;18.620;2022-10-16T00:38:43;105.30;;;63.75;;
18114;SDS011;9184;54.390;18.620;2022-10-16T00:39:14;119.07;;;63.58;;
18114;SDS011;9184;54.390;18.620;2022-10-16T00:39:46;112.18;;;63.60;;
18114;SDS011;9184;54.390;18.620;2022-10-16T00:40:17;107.88;;;62.95;;
18114;SDS011;9184;54.390;18.620;2022-10-16T00:40:47;102.60;;;61.60;;
18114;SDS011;9184;54.390;18.620;2022-10-16T00:41:18;106.18;;;62.47;;
18114;SDS011;9184;54.390;18.620;2022-10-16T00:41:49;110.05;;;63.35;;
18114;SDS011;9184;54.390;18.620;2022-10-16T00:42:20;119.47;;;63.15;;
18114;SDS011;9184;54.390;18.620;2022-10-16T00:42:50;107.75;;;62.38;;
18114;SDS011;9184;54.390;18.620;2022-10-16T00:43:36;117.93;;;63.67;;
18114;SDS011;9184;54.390;18.620;2022-10-16T00:44:54;108.57;;;62.97;;
18114;SDS011;9184;54.390;18.620;2022-10-16T00:45:26;120.72;;;63.45;;
18114;SDS011;9184;54.390;18.620;2022-10-16T00:45:57;115.80;;;63.13;;
18114;SDS011;9184;54.390;18.620;2022-10-16T00:46:29;114.30;;;63.50;;
18114;SDS011;9184;54.390;18.620;2022-10-16T00:47:00;113.25;;;63.83;;
18114;SDS011;9184;54.390;18.620;2022-10-16T00:47:32;109.45;;;60.60;;
18114;SDS011;9184;54.390;18.620;2022-10-16T00:48:06;117.63;;;64.35;;
18114;SDS011;9184;54.390;18.620;2022-10-16T00:48:40;110.57;;;63.50;;
18114;SDS011;9184;54.390;18.620;2022-10-16T00:49:14;114.00;;;63.50;;
18114;SDS011;9184;54.390;18.620;2022-10-16T00:49:45;112.10;;;63.65;;
18114;SDS011;9184;54.390;18.620;2022-10-16T00:50:17;114.32;;;64.78;;
18114;SDS011;9184;54.390;18.620;2022-10-16T00:50:52;118.80;;;65.45;;
18114;SDS011;9184;54.390;18.620;2022-10-16T00:51:25;125.85;;;66.35;;
18114;SDS011;9184;54.390;18.620;2022-10-16T00:51:58;116.95;;;64.10;;
18114;SDS011;9184;54.390;18.620;2022-10-16T00:52:29;110.78;;;62.95;;
18114;SDS011;9184;54.390;18.620;2022-10-16T00:53:00;123.55;;;65.00;;
18114;SDS011;9184;54.390;18.620;2022-10-16T00:53:31;108.38;;;62.15;;
18114;SDS011;9184;54.390;18.620;2022-10-16T00:54:04;112.53;;;65.13;;
18114;SDS011;9184;54.390;18.620;2022-10-16T00:54:35;110.85;;;62.30;;
18114;SDS011;9184;54.390;18.620;2022-10-16T00:55:06;107.68;;;61.00;;
18114;SDS011;9184;54.390;18.620;2022-10-16T00:55:37;118.55;;;62.80;;
18114;SDS011;9184;54.390;18.620;2022-10-16T00:56:08;116.85;;;60.20;;
18114;SDS011;9184;54.390;18.620;2022-10-16T00:56:38;113.88;;;63.03;;
18114;SDS011;9184;54.390;18.620;2022-10-16T00:57:10;126.65;;;64.90;;
18114;SDS011;9184;54.390;18.620;2022-10-16T00:57:41;125.55;;;62.58;;
18114;SDS011;9184;54.390;18.620;2022-10-16T00:58:11;114.40;;;63.67;;
18114;SDS011;9184;54.390;18.620;2022-10-16T00:58:43;113.85;;;61.92;;
18114;SDS011;9184;54.390;18.620;2022-10-16T00:59:15;118.03;;;62.20;;
18114;SDS011;9184;54.390;18.620;2022-10-16T00:59:46;122.97;;;62.22;;
18114;SDS011;9184;54.390;18.620;2022-10-16T01:00:20;118.15;;;62.13;;
18114;SDS011;9184;54.390;18.620;2022-10-16T01:00:50;106.25;;;59.67;;
18114;SDS011;9184;54.390;18.620;2022-10-16T01:01:21;119.75;;;60.60;;
18114;SDS011;9184;54.390;18.620;2022-10-16T01:01:52;109.38;;;57.72;;
18114;SDS011;9184;54.390;18.620;2022-10-16T01:02:23;113.28;;;59.92;;
18114;SDS011;9184;54.390;18.620;2022-10-16T01:02:55;110.32;;;59.72;;
18114;SDS011;9184;54.390;18.620;2022-10-16T01:03:27;111.95;;;59.30;;
18114;SDS011;9184;54.390;18.620;2022-10-16T01:03:58;105.30;;;59.08;;
18114;SDS011;9184;54.390;18.620;2022-10-16T01:04:29;114.03;;;60.50;;
18114;SDS011;9184;54.390;18.620;2022-10-16T01:05:02;112.90;;;57.63;;
18114;SDS011;9184;54.390;18.620;2022-10-16T01:05:37;105.63;;;57.97;;
18114;SDS011;9184;54.390;18.620;2022-10-16T01:06:12;104.90;;;57.50;;
18114;SDS011;9184;54.390;18.620;2022-10-16T01:06:49;109.72;;;56.70;;
18114;SDS011;9184;54.390;18.620;2022-10-16T01:07:34;101.55;;;56.08;;
18114;SDS011;9184;54.390;18.620;2022-10-16T01:08:09;108.00;;;57.10;;
18114;SDS011;9184;54.390;18.620;2022-10-16T01:08:44;98.55;;;54.55;;
18114;SDS011;9184;54.390;18.620;2022-10-16T01:09:16;105.80;;;54.63;;
18114;SDS011;9184;54.390;18.620;2022-10-16T01:09:52;96.40;;;54.83;;
18114;SDS011;9184;54.390;18.620;2022-10-16T01:10:27;92.28;;;53.40;;
18114;SDS011;9184;54.390;18.620;2022-10-16T01:10:59;93.78;;;51.65;;
18114;SDS011;9184;54.390;18.620;2022-10-16T01:11:33;93.38;;;52.58;;
18114;SDS011;9184;54.390;18.620;2022-10-16T01:12:09;102.15;;;55.45;;
18114;SDS011;9184;54.390;18.620;2022-10-16T01:12:41;99.13;;;53.13;;
18114;SDS011;9184;54.390;18.620;2022-10-16T01:13:12;101.15;;;52.65;;
18114;SDS011;9184;54.390;18.620;2022-10-16T01:13:50;97.35;;;51.55;;
18114;SDS011;9184;54.390;18.620;2022-10-16T01:14:26;97.70;;;52.13;;
18114;SDS011;9184;54.390;18.620;2022-10-16T01:14:59;96.30;;;52.97;;
18114;SDS011;9184;54.390;18.620;2022-10-16T01:15:35;94.47;;;52.22;;
18114;SDS011;9184;54.390;18.620;2022-10-16T01:16:08;97.60;;;54.22;;
18114;SDS011;9184;54.390;18.620;2022-10-16T01:16:43;96.88;;;52.75;;
18114;SDS011;9184;54.390;18.620;2022-10-16T01:17:15;93.53;;;51.88;;
18114;SDS011;9184;54.390;18.620;2022-10-16T01:17:49;94.07;;;53.45;;
18114;SDS011;9184;54.390;18.620;2022-10-16T01:18:23;87.55;;;52.05;;
18114;SDS011;9184;54.390;18.620;2022-10-16T01:18:57;87.28;;;51.38;;
18114;SDS011;9184;54.390;18.620;2022-10-16T01:19:38;89.03;;;51.25;;
18114;SDS011;9184;54.390;18.620;2022-10-16T01:20:13;90.53;;;52.88;;
18114;SDS011;9184;54.390;18.620;2022-10-16T01:20:50;87.95;;;55.05;;
18114;SDS011;9184;54.390;18.620;2022-10-16T01:21:25;90.28;;;52.33;;
18114;SDS011;9184;54.390;18.620;2022-10-16T01:21:57;88.15;;;54.30;;
18114;SDS011;9184;54.390;18.620;2022-10-16T01:22:31;84.85;;;51.90;;
18114;SDS011;9184;54.390;18.620;2022-10-16T01:23:06;84.72;;;52.25;;
18114;SDS011;9184;54.390;18.620;2022-10-16T01:23:41;84.85;;;51.38;;
18114;SDS011;9184;54.390;18.620;2022-10-16T01:24:18;79.90;;;49.83;;
18114;SDS011;9184;54.390;18.620;2022-10-16T01:24:51;86.30;;;52.35;;
18114;SDS011;9184;54.390;18.620;2022-10-16T01:25:27;80.35;;;50.53;;
18114;SDS011;9184;54.390;18.620;2022-10-16T01:27:04;88.25;;;52.85;;
18114;SDS011;9184;54.390;18.620;2022-10-16T01:27:35;88.15;;;51.38;;
18114;SDS011;9184;54.390;18.620;2022-10-16T01:28:06;84.32;;;51.50;;
18114;SDS011;9184;54.390;18.620;2022-10-16T01:28:41;81.20;;;49.35;;
18114;SDS011;9184;54.390;18.620;2022-10-16T01:29:16;88.57;;;52.75;;
18114;SDS011;9184;54.390;18.620;2022-10-16T01:29:50;91.05;;;52.65;;
18114;SDS011;9184;54.390;18.620;2022-10-16T01:30:24;86.05;;;51.63;;
18114;SDS011;9184;54.390;18.620;2022-10-16T01:30:57;91.35;;;52.67;;
18114;SDS011;9184;54.390;18.620;2022-10-16T01:31:29;85.78;;;51.42;;
18114;SDS011;9184;54.390;18.620;2022-10-16T01:32:05;88.22;;;52.67;;
18114;SDS011;9184;54.390;18.620;2022-10-16T01:32:38;80.68;;;51.50;;
18114;SDS011;9184;54.390;18.620;2022-10-16T01:33:12;86.43;;;51.58;;
18114;SDS011;9184;54.390;18.620;2022-10-16T01:33:47;83.03;;;50.75;;
18114;SDS011;9184;54.390;18.620;2022-10-16T01:34:20;84.85;;;49.15;;
18114;SDS011;9184;54.390;18.620;2022-10-16T01:34:53;83.00;;;51.75;;
18114;SDS011;9184;54.390;18.620;2022-10-16T01:35:26;83.63;;;51.35;;
18114;SDS011;9184;54.390;18.620;2022-10-16T01:35:59;82.97;;;50.20;;
18114;SDS011;9184;54.390;18.620;2022-10-16T01:36:34;92.65;;;51.58;;
18114;SDS011;9184;54.390;18.620;2022-10-16T01:37:07;81.57;;;50.25;;
18114;SDS011;9184;54.390;18.620;2022-10-16T01:37:40;87.55;;;50.95;;
18114;SDS011;9184;54.390;18.620;2022-10-16T01:38:12;93.30;;;51.65;;
18114;SDS011;9184;54.390;18.620;2022-10-16T01:38:47;78.60;;;50.15;;
18114;SDS011;9184;54.390;18.620;2022-10-16T01:39:21;86.18;;;51.70;;
18114;SDS011;9184;54.390;18.620;2022-10-16T01:39:52;88.57;;;53.25;;
18114;SDS011;9184;54.390;18.620;2022-10-16T01:40:26;84.05;;;51.03;;
18114;SDS011;9184;54.390;18.620;2022-10-16T01:40:58;84.72;;;50.60;;
18114;SDS011;9184;54.390;18.620;2022-10-16T01:41:30;83.68;;;51.70;;
18114;SDS011;9184;54.390;18.620;2022-10-16T01:42:05;80.30;;;49.70;;
18114;SDS011;9184;54.390;18.620;2022-10-16T01:42:37;95.30;;;51.53;;
18114;SDS011;9184;54.390;18.620;2022-10-16T01:43:10;86.38;;;51.25;;
18114;SDS011;9184;54.390;18.620;2022-10-16T01:43:43;82.28;;;50.72;;
18114;SDS011;9184;54.390;18.620;2022-10-16T01:44:16;81.13;;;51.38;;
18114;SDS011;9184;54.390;18.620;2022-10-16T01:44:47;78.22;;;51.28;;
18114;SDS011;9184;54.390;18.620;2022-10-16T01:45:19;87.45;;;51.15;;
18114;SDS011;9184;54.390;18.620;2022-10-16T01:45:51;89.30;;;53.03;;
18114;SDS011;9184;54.390;18.620;2022-10-16T01:46:22;92.47;;;53.38;;
18114;SDS011;9184;54.390;18.620;2022-10-16T01:46:53;82.88;;;51.53;;
18114;SDS011;9184;54.390;18.620;2022-10-16T01:47:24;82.78;;;51.72;;
18114;SDS011;9184;54.390;18.620;2022-10-16T01:47:56;87.25;;;50.63;;
18114;SDS011;9184;54.390;18.620;2022-10-16T01:48:29;78.03;;;48.72;;
18114;SDS011;9184;54.390;18.620;2022-10-16T01:49:01;77.78;;;50.50;;
18114;SDS011;9184;54.390;18.620;2022-10-16T01:49:34;89.03;;;52.67;;
18114;SDS011;9184;54.390;18.620;2022-10-16T01:50:07;80.55;;;51.22;;
18114;SDS011;9184;54.390;18.620;2022-10-16T01:50:38;80.25;;;50.05;;
18114;SDS011;9184;54.390;18.620;2022-10-16T01:51:11;84.75;;;51.67;;
18114;SDS011;9184;54.390;18.620;2022-10-16T01:51:43;87.55;;;50.30;;
18114;SDS011;9184;54.390;18.620;2022-10-16T01:52:16;81.25;;;51.03;;
18114;SDS011;9184;54.390;18.620;2022-10-16T01:52:48;86.55;;;52.17;;
18114;SDS011;9184;54.390;18.620;2022-10-16T01:53:20;78.95;;;51.38;;
18114;SDS011;9184;54.390;18.620;2022-10-16T01:53:52;82.15;;;49.95;;
18114;SDS011;9184;54.390;18.620;2022-10-16T01:54:23;83.95;;;49.40;;
18114;SDS011;9184;54.390;18.620;2022-10-16T01:54:56;75.88;;;48.08;;
18114;SDS011;9184;54.390;18.620;2022-10-16T01:55:28;83.22;;;50.92;;
18114;SDS011;9184;54.390;18.620;2022-10-16T01:55:59;76.97;;;49.33;;
18114;SDS011;9184;54.390;18.620;2022-10-16T01:56:30;83.40;;;49.97;;
18114;SDS011;9184;54.390;18.620;2022-10-16T01:57:06;79.75;;;50.13;;
18114;SDS011;9184;54.390;18.620;2022-10-16T01:57:38;85.18;;;50.15;;
18114;SDS011;9184;54.390;18.620;2022-10-16T01:58:10;72.15;;;47.47;;
18114;SDS011;9184;54.390;18.620;2022-10-16T01:58:43;72.70;;;45.47;;
18114;SDS011;9184;54.390;18.620;2022-10-16T01:59:16;66.18;;;41.33;;
18114;SDS011;9184;54.390;18.620;2022-10-16T01:59:48;70.63;;;41.20;;
18114;SDS011;9184;54.390;18.620;2022-10-16T02:00:21;63.72;;;40.15;;
18114;SDS011;9184;54.390;18.620;2022-10-16T02:00:52;65.22;;;41.53;;
18114;SDS011;9184;54.390;18.620;2022-10-16T02:01:24;69.10;;;43.28;;
18114;SDS011;9184;54.390;18.620;2022-10-16T02:01:58;65.18;;;40.90;;
18114;SDS011;9184;54.390;18.620;2022-10-16T02:02:29;64.05;;;40.47;;
18114;SDS011;9184;54.390;18.620;2022-10-16T02:03:01;66.60;;;40.63;;
18114;SDS011;9184;54.390;18.620;2022-10-16T02:03:33;65.32;;;40.95;;
18114;SDS011;9184;54.390;18.620;2022-10-16T02:04:07;64.20;;;39.22;;
18114;SDS011;9184;54.390;18.620;2022-10-16T02:04:39;67.22;;;40.05;;
18114;SDS011;9184;54.390;18.620;2022-10-16T02:05:13;61.88;;;39.70;;
18114;SDS011;9184;54.390;18.620;2022-10-16T02:05:47;61.00;;;39.45;;
18114;SDS011;9184;54.390;18.620;2022-10-16T02:06:19;63.50;;;38.65;;
18114;SDS011;9184;54.390;18.620;2022-10-16T02:06:51;57.00;;;38.63;;
18114;SDS011;9184;54.390;18.620;2022-10-16T02:07:22;60.17;;;39.03;;
18114;SDS011;9184;54.390;18.620;2022-10-16T02:07:52;57.65;;;39.88;;
18114;SDS011;9184;54.390;18.620;2022-10-16T02:08:25;50.60;;;35.75;;
18114;SDS011;9184;54.390;18.620;2022-10-16T02:08:58;54.35;;;35.30;;
18114;SDS011;9184;54.390;18.620;2022-10-16T02:09:29;51.83;;;36.53;;
18114;SDS011;9184;54.390;18.620;2022-10-16T02:10:01;61.70;;;36.33;;
18114;SDS011;9184;54.390;18.620;2022-10-16T02:10:32;54.22;;;36.25;;
18114;SDS011;9184;54.390;18.620;2022-10-16T02:11:04;53.72;;;36.15;;
18114;SDS011;9184;54.390;18.620;2022-10-16T02:11:36;50.63;;;34.25;;
18114;SDS011;9184;54.390;18.620;2022-10-16T02:12:10;51.20;;;35.05;;
18114;SDS011;9184;54.390;18.620;2022-10-16T02:12:43;55.30;;;34.72;;
18114;SDS011;9184;54.390;18.620;2022-10-16T02:13:17;52.25;;;35.80;;
18114;SDS011;9184;54.390;18.620;2022-10-16T02:13:50;50.85;;;36.08;;
18114;SDS011;9184;54.390;18.620;2022-10-16T02:14:22;52.42;;;34.88;;
18114;SDS011;9184;54.390;18.620;2022-10-16T02:14:54;51.92;;;34.03;;
18114;SDS011;9184;54.390;18.620;2022-10-16T02:15:25;52.25;;;36.75;;
18114;SDS011;9184;54.390;18.620;2022-10-16T02:15:56;54.63;;;36.75;;
18114;SDS011;9184;54.390;18.620;2022-10-16T02:16:32;53.92;;;36.97;;
18114;SDS011;9184;54.390;18.620;2022-10-16T02:17:09;49.63;;;34.30;;
18114;SDS011;9184;54.390;18.620;2022-10-16T02:17:40;51.65;;;35.92;;
18114;SDS011;9184;54.390;18.620;2022-10-16T02:18:11;54.78;;;37.38;;
18114;SDS011;9184;54.390;18.620;2022-10-16T02:18:42;57.63;;;36.05;;
18114;SDS011;9184;54.390;18.620;2022-10-16T02:19:13;56.25;;;37.15;;
18114;SDS011;9184;54.390;18.620;2022-10-16T02:19:46;55.50;;;38.05;;
18114;SDS011;9184;54.390;18.620;2022-10-16T02:20:18;60.60;;;39.45;;
18114;SDS011;9184;54.390;18.620;2022-10-16T02:20:52;59.40;;;40.00;;
18114;SDS011;9184;54.390;18.620;2022-10-16T02:21:25;58.80;;;38.33;;
18114;SDS011;9184;54.390;18.620;2022-10-16T02:21:56;57.35;;;38.95;;
18114;SDS011;9184;54.390;18.620;2022-10-16T02:22:28;62.72;;;39.92;;
18114;SDS011;9184;54.390;18.620;2022-10-16T02:23:01;72.88;;;39.65;;
18114;SDS011;9184;54.390;18.620;2022-10-16T02:23:34;54.13;;;37.63;;
18114;SDS011;9184;54.390;18.620;2022-10-16T02:24:07;56.25;;;38.65;;
18114;SDS011;9184;54.390;18.620;2022-10-16T02:24:42;58.67;;;39.50;;
18114;SDS011;9184;54.390;18.620;2022-10-16T02:25:16;61.50;;;40.88;;
18114;SDS011;9184;54.390;18.620;2022-10-16T02:25:48;61.80;;;42.70;;
18114;SDS011;9184;54.390;18.620;2022-10-16T02:26:22;63.80;;;40.85;;
18114;SDS011;9184;54.390;18.620;2022-10-16T02:26:57;57.53;;;38.35;;
18114;SDS011;9184;54.390;18.620;2022-10-16T02:27:33;58.83;;;40.50;;
18114;SDS011;9184;54.390;18.620;2022-10-16T02:28:06;65.05;;;41.05;;
18114;SDS011;9184;54.390;18.620;2022-10-16T02:28:39;65.60;;;41.83;;
18114;SDS011;9184;54.390;18.620;2022-10-16T02:29:12;64.35;;;39.70;;
18114;SDS011;9184;54.390;18.620;2022-10-16T02:29:46;65.18;;;41.40;;
18114;SDS011;9184;54.390;18.620;2022-10-16T02:30:19;64.03;;;42.15;;
18114;SDS011;9184;54.390;18.620;2022-10-16T02:30:50;65.20;;;41.58;;
18114;SDS011;9184;54.390;18.620;2022-10-16T02:31:23;64.18;;;42.42;;
18114;SDS011;9184;54.390;18.620;2022-10-16T02:31:56;65.03;;;43.83;;
18114;SDS011;9184;54.390;18.620;2022-10-16T02:32:29;67.72;;;41.03;;
18114;SDS011;9184;54.390;18.620;2022-10-16T02:33:00;70.20;;;43.92;;
18114;SDS011;9184;54.390;18.620;2022-10-16T02:33:33;63.35;;;43.05;;
18114;SDS011;9184;54.390;18.620;2022-10-16T02:34:04;69.63;;;42.05;;
18114;SDS011;9184;54.390;18.620;2022-10-16T02:34:36;66.38;;;44.78;;
18114;SDS011;9184;54.390;18.620;2022-10-16T02:35:08;66.30;;;42.53;;
18114;SDS011;9184;54.390;18.620;2022-10-16T02:35:39;63.42;;;42.03;;
18114;SDS011;9184;54.390;18.620;2022-10-16T02:36:10;68.22;;;44.25;;
18114;SDS011;9184;54.390;18.620;2022-10-16T02:36:41;71.20;;;46.13;;
18114;SDS011;9184;54.390;18.620;2022-10-16T02:37:13;68.65;;;44.30;;
18114;SDS011;9184;54.390;18.620;2022-10-16T02:37:43;65.50;;;44.40;;
18114;SDS011;9184;54.390;18.620;2022-10-16T02:38:15;69.65;;;45.05;;
18114;SDS011;9184;54.390;18.620;2022-10-16T02:38:46;71.80;;;46.65;;
18114;SDS011;9184;54.390;18.620;2022-10-16T02:39:17;69.07;;;43.80;;
18114;SDS011;9184;54.390;18.620;2022-10-16T02:39:49;70.15;;;43.53;;
18114;SDS011;9184;54.390;18.620;2022-10-16T02:40:19;67.82;;;43.80;;
18114;SDS011;9184;54.390;18.620;2022-10-16T02:40:50;74.85;;;46.20;;
18114;SDS011;9184;54.390;18.620;2022-10-16T02:41:21;69.15;;;45.83;;
18114;SDS011;9184;54.390;18.620;2022-10-16T02:41:53;71.65;;;45.85;;
18114;SDS011;9184;54.390;18.620;2022-10-16T02:42:28;75.97;;;48.22;;
18114;SDS011;9184;54.390;18.620;2022-10-16T02:43:00;73.50;;;45.83;;
18114;SDS011;9184;54.390;18.620;2022-10-16T02:43:34;70.95;;;44.08;;
18114;SDS011;9184;54.390;18.620;2022-10-16T02:44:04;70.68;;;46.05;;
18114;SDS011;9184;54.390;18.620;2022-10-16T02:44:35;68.30;;;45.03;;
18114;SDS011;9184;54.390;18.620;2022-10-16T02:45:07;77.63;;;47.03;;
18114;SDS011;9184;54.390;18.620;2022-10-16T02:45:37;71.85;;;44.22;;
18114;SDS011;9184;54.390;18.620;2022-10-16T02:46:08;73.53;;;45.75;;
18114;SDS011;9184;54.390;18.620;2022-10-16T02:46:39;74.97;;;45.00;;
18114;SDS011;9184;54.390;18.620;2022-10-16T02:47:10;77.80;;;47.15;;
18114;SDS011;9184;54.390;18.620;2022-10-16T02:47:42;78.53;;;46.75;;
18114;SDS011;9184;54.390;18.620;2022-10-16T02:48:13;75.45;;;45.60;;
18114;SDS011;9184;54.390;18.620;2022-10-16T02:48:44;82.90;;;48.15;;
18114;SDS011;9184;54.390;18.620;2022-10-16T02:49:15;78.80;;;46.90;;
18114;SDS011;9184;54.390;18.620;2022-10-16T02:49:47;77.68;;;46.72;;
18114;SDS011;9184;54.390;18.620;2022-10-16T02:50:18;76.72;;;46.72;;
18114;SDS011;9184;54.390;18.620;2022-10-16T02:50:48;77.60;;;47.55;;
18114;SDS011;9184;54.390;18.620;2022-10-16T02:51:20;76.60;;;46.13;;
18114;SDS011;9184;54.390;18.620;2022-10-16T02:51:50;75.22;;;45.38;;
18114;SDS011;9184;54.390;18.620;2022-10-16T02:52:21;73.32;;;44.15;;
18114;SDS011;9184;54.390;18.620;2022-10-16T02:52:52;77.95;;;46.53;;
18114;SDS011;9184;54.390;18.620;2022-10-16T02:53:23;77.82;;;45.45;;
18114;SDS011;9184;54.390;18.620;2022-10-16T02:53:53;76.68;;;46.92;;
18114;SDS011;9184;54.390;18.620;2022-10-16T02:54:25;74.03;;;47.45;;
18114;SDS011;9184;54.390;18.620;2022-10-16T02:54:55;82.63;;;47.17;;
18114;SDS011;9184;54.390;18.620;2022-10-16T02:55:26;74.55;;;47.45;;
18114;SDS011;9184;54.390;18.620;2022-10-16T02:55:57;80.57;;;47.53;;
18114;SDS011;9184;54.390;18.620;2022-10-16T02:56:29;79.45;;;47.92;;
18114;SDS011;9184;54.390;18.620;2022-10-16T02:57:01;79.07;;;46.85;;
18114;SDS011;9184;54.390;18.620;2022-10-16T02:57:31;86.13;;;48.47;;
18114;SDS011;9184;54.390;18.620;2022-10-16T02:58:03;77.50;;;47.40;;
18114;SDS011;9184;54.390;18.620;2022-10-16T02:58:34;75.25;;;46.20;;
18114;SDS011;9184;54.390;18.620;2022-10-16T02:59:05;79.05;;;46.50;;
18114;SDS011;9184;54.390;18.620;2022-10-16T02:59:35;79.18;;;45.30;;
18114;SDS011;9184;54.390;18.620;2022-10-16T03:00:06;71.55;;;45.60;;
18114;SDS011;9184;54.390;18.620;2022-10-16T03:00:38;78.57;;;47.80;;
18114;SDS011;9184;54.390;18.620;2022-10-16T03:01:08;74.10;;;45.13;;
18114;SDS011;9184;54.390;18.620;2022-10-16T03:01:39;81.03;;;46.50;;
18114;SDS011;9184;54.390;18.620;2022-10-16T03:02:12;73.28;;;46.80;;
18114;SDS011;9184;54.390;18.620;2022-10-16T03:02:42;76.40;;;43.80;;
18114;SDS011;9184;54.390;18.620;2022-10-16T03:03:13;70.40;;;44.38;;
18114;SDS011;9184;54.390;18.620;2022-10-16T03:03:44;72.15;;;44.50;;
18114;SDS011;9184;54.390;18.620;2022-10-16T03:04:15;72.45;;;44.70;;
18114;SDS011;9184;54.390;18.620;2022-10-16T03:04:46;71.72;;;42.20;;
18114;SDS011;9184;54.390;18.620;2022-10-16T03:05:17;76.10;;;43.63;;
18114;SDS011;9184;54.390;18.620;2022-10-16T03:05:48;77.25;;;44.90;;
18114;SDS011;9184;54.390;18.620;2022-10-16T03:06:18;69.35;;;42.92;;
18114;SDS011;9184;54.390;18.620;2022-10-16T03:06:50;71.57;;;43.55;;
18114;SDS011;9184;54.390;18.620;2022-10-16T03:07:20;71.25;;;43.10;;
18114;SDS011;9184;54.390;18.620;2022-10-16T03:07:51;70.50;;;42.60;;
18114;SDS011;9184;54.390;18.620;2022-10-16T03:08:22;67.22;;;42.40;;
18114;SDS011;9184;54.390;18.620;2022-10-16T03:08:55;70.35;;;43.05;;